Buffalo, NY

6:06 PM EDT on September 04, 2015 (GMT -0400)
Cleve Hill | | Change Station
CLOSE
Current Station
Personal Weather Station
Location: Cheektowaga, NY
Elevation: 686 ft
Nearby Weather Stations

Elev 686 ft 42.94 °N, 78.77 °W | Updated 6 minutes ago

Partly Cloudy
Partly Cloudy
81.4 °F
Feels Like 83 °F
N
3.0
Wind Variable Wind from ENE
Gusts 13.0 mph

Today
High -- | Low -- °F
--% Chance of Precip.
Yesterday
High -- | Low -- °F
Precip. -- in
6:42 AM 7:45 PM
Waning Gibbous, 55% visible
Pressure 30.07 in
Visibility 10.0 miles
Clouds Few 3500 ft
Few 28000 ft
Heat Index 83 °F
Dew Point 66 °F
Humidity 59%
Rainfall 0.00 in
Snow Depth Not available.
UV 1 out of 12
Pollen 10.40 out of 12
Air Quality Not available.
Flu Activity Not available.
METAR KBUF 042154Z 05010KT 10SM FEW035 FEW280 27/17 A3008 RMK AO2 SLP181 CB TOP DSNT SW T02720172
Pressure 30.07 in
Visibility 10.0 miles
Clouds Few 3500 ft
Few 28000 ft
Heat Index 83 °F
Dew Point 66 °F
Humidity 59%
Rainfall 0.00 in
Snow Depth Not available.
UV 1 out of 12
Pollen 10.40 out of 12
Air Quality Not available.
Flu Activity Not available.
METAR KBUF 042154Z 05010KT 10SM FEW035 FEW280 27/17 A3008 RMK AO2 SLP181 CB TOP DSNT SW T02720172

10-Day Weather Forecast

×

Almanac

Astronomy

Sep. 04, 2015 Rise Set
Actual Time
Civil Twilight
Nautical Twilight
Astronomical Twilight
Moon
Length of Visible Light
Length of Day
Tomorrow will be .
, % of the Moon is Illuminated

Today's Extremes

State Highs State Lows

Community

WunderPhotos

Upload Photos

1,852,305 photos uploaded!

WunderBlogs® & News

Nearby

Air Quality

  Air Quality AQ Index Pollutant
Not available.

Snow Depth

Station Depth Elevation

Earthquake Activity

City Distance Mag. Time & Date
Minimum magnitude displayed is 2.5.

Coastal Water Temperatures

Place Temperature

Stations

Nearby Weather Stations

Station Location Temp. Windchill Dew Point Humidity Wind Precip. Elev Updated Type